Latest Weather Observations for Williamtown

IDN60801

Issued at 11:05 pm EST Saturday 23 August 2014 (issued every 30 minutes, with the page automatically refreshed every 10 minutes)

About weather observations | Map of weather stations | Latest weather observations for NSW | Other Formats
Station Details ID: 061078 Name: WILLIAMTOWN RAAF Lat: -32.79 Lon: 151.84 Height: 9.0 m
Data from the previous 72 hours. | See also: Recent months at Williamtown
Date/Time
EST
Temp
°C
App
Temp
°C
Dew
Point
Rel
Hum
%
Delta-T
°C
Wind Press
QNH
hPa
Press
MSL
hPa
Rain
since 9 am
mm
Dir
 
Spd
km/h
Gust
km/h
Spd
kts
Gust
kts
23/11:00pm 13.3 12.4 12.7 96 0.3 WSW 9 9 5 5 1029.6 - 5.0
23/10:30pm 13.5 12.7 12.9 96 0.3 SSW 9 11 5 6 1029.8 - 5.0
23/10:00pm 13.4 13.0 13.0 97 0.2 SSW 7 9 4 5 1029.8 - 5.0
23/09:30pm 13.7 13.4 13.2 97 0.3 SSW 7 9 4 5 1030.0 - 5.0
23/09:00pm 13.5 12.0 13.1 97 0.2 SW 13 15 7 8 1030.0 1030.1 5.0
23/08:56pm 13.5 12.0 13.1 97 0.2 WSW 13 15 7 8 1030.1 - 5.0
23/08:42pm 13.6 12.5 13.2 97 0.2 WNW 11 13 6 7 1030.1 - 4.8
23/08:30pm 13.5 12.7 12.9 96 0.3 NNW 9 11 5 6 1030.1 - 4.0
23/08:00pm 13.3 12.9 12.9 97 0.2 WNW 7 9 4 5 1029.9 - 4.0
23/07:30pm 13.7 13.9 13.2 97 0.3 W 4 6 2 3 1029.8 - 4.0
23/07:00pm 13.6 12.8 13.0 96 0.3 WSW 9 9 5 5 1029.7 - 4.0
23/06:30pm 13.7 13.4 13.2 97 0.3 SW 7 9 4 5 1029.5 - 3.6
23/06:00pm 13.9 13.6 13.2 96 0.4 SSW 7 9 4 5 1029.3 1029.4 3.6
23/05:30pm 13.9 13.4 12.6 92 0.7 SSE 7 9 4 5 1029.1 - 3.6
23/05:00pm 14.0 13.6 12.9 93 0.6 E 7 7 4 4 1028.8 - 3.6
23/04:41pm 14.1 13.4 13.2 94 0.5 ESE 9 11 5 6 1028.5 - 3.6
23/04:30pm 14.0 12.8 12.9 93 0.6 E 11 17 6 9 1028.5 - 3.6
23/04:27pm 13.9 12.4 13.0 94 0.5 E 13 17 7 9 1028.5 - 3.6
23/04:00pm 14.8 12.5 13.0 89 1.0 E 17 22 9 12 1028.5 - 0.8
23/03:30pm 16.5 16.0 12.5 77 2.2 NNE 7 11 4 6 1028.2 - 0.2
23/03:00pm 16.8 15.5 11.4 70 2.9 NNE 9 15 5 8 1028.3 1028.4 0.2
23/02:30pm 17.2 16.3 11.5 69 3.1 NE 7 11 4 6 1028.3 - 0.2
23/02:00pm 17.2 16.0 11.7 70 3.0 NE 9 13 5 7 1028.3 - 0.2
23/01:30pm 16.6 15.4 11.6 72 2.7 SSE 9 11 5 6 1028.3 - 0.2
23/01:00pm 16.2 14.9 12.4 78 2.1 SE 11 15 6 8 1028.6 - 0.2
23/12:34pm 16.0 12.7 12.7 81 1.8 SSE 22 28 12 15 1029.0 - 0.2
23/12:30pm 15.8 13.0 13.3 85 1.4 SSE 20 28 11 15 1029.0 - 0.2
23/12:20pm 15.6 13.4 13.4 87 1.2 S 17 26 9 14 1029.2 - 0.2
23/12:00pm 16.4 14.3 13.5 83 1.6 S 17 24 9 13 1029.3 1029.4 0.2
23/11:30am 16.6 14.5 13.7 83 1.6 S 17 24 9 13 1029.7 - 0.2
23/11:00am 15.8 14.2 14.0 89 1.0 SSW 15 19 8 10 1030.1 - 0.2
23/10:30am 16.3 13.5 12.7 79 2.0 SSE 19 26 10 14 1030.2 - 0.0
23/10:04am 16.1 14.3 13.2 83 1.6 S 15 20 8 11 1030.3 - 0.0
23/10:00am 16.1 13.9 13.4 84 1.5 S 17 19 9 10 1030.3 - 0.0
23/09:30am 15.8 13.3 13.5 86 1.3 S 19 24 10 13 1030.3 - 0.0
23/09:27am 15.5 14.9 13.5 88 1.1 SW 9 17 5 9 1030.3 - 0.0
23/09:23am 15.6 15.1 13.8 89 1.0 SW 9 13 5 7 1030.3 - 0.0
23/09:10am 14.6 14.3 13.3 92 0.7 SW 7 11 4 6 1030.5 - 0.0
23/09:00am 14.3 13.9 13.0 92 0.7 SW 7 9 4 5 1030.6 1030.7 3.2
23/08:30am 12.7 11.6 11.9 95 0.4 NW 9 11 5 6 1030.6 - 3.2
23/08:00am 11.1 10.1 10.9 99 0.1 WNW 7 9 4 5 1030.1 - 3.2
23/07:30am 10.3 8.7 10.1 99 0.1 WNW 9 11 5 6 1030.0 - 3.2
23/07:00am 9.2 7.3 9.0 99 0.1 WNW 9 11 5 6 1029.9 - 3.2
23/06:56am 9.1 7.2 8.9 99 0.1 WNW 9 11 5 6 1029.7 - 3.2
23/06:55am 9.0 7.0 8.8 99 0.1 NW 9 11 5 6 1029.7 - 3.2
23/06:54am 9.0 7.0 8.8 99 0.1 NW 9 11 5 6 1029.7 - 3.2
23/06:53am 9.0 7.0 8.8 99 0.1 NW 9 11 5 6 1029.7 - 3.2
23/06:52am 8.9 7.0 8.9 100 0.0 NW 9 11 5 6 1029.6 - 3.2
23/06:48am 9.1 7.2 8.9 99 0.1 NW 9 11 5 6 1029.6 - 3.2
23/06:45am 9.0 7.0 8.8 99 0.1 NNW 9 11 5 6 1029.5 - 3.2
23/06:30am 9.1 7.2 8.9 99 0.1 NW 9 9 5 5 1029.4 - 3.2
23/06:21am 9.3 7.4 9.1 99 0.1 WNW 9 11 5 6 1029.4 - 3.2
23/06:18am 9.4 7.2 9.2 99 0.1 WNW 11 11 6 6 1029.4 - 3.2
23/06:04am 9.4 7.5 9.2 99 0.1 WNW 9 11 5 6 1029.3 - 3.2
23/06:00am 9.3 7.5 9.3 100 0.0 NW 9 9 5 5 1029.2 1029.3 3.2
23/05:45am 9.8 8.4 9.6 99 0.1 NNW 7 9 4 5 1029.1 - 3.2
23/05:30am 9.8 7.7 9.6 99 0.1 NW 11 13 6 7 1028.9 - 3.2
23/05:00am 10.0 8.7 10.0 100 0.0 NW 7 9 4 5 1028.8 - 3.2
23/04:30am 10.3 9.2 10.1 99 0.1 W 6 9 3 5 1028.4 - 3.2
23/04:14am 10.5 8.9 10.1 97 0.2 WNW 9 9 5 5 1028.5 - 3.2
23/04:12am 10.5 8.9 10.3 99 0.1 WNW 9 9 5 5 1028.5 - 3.2
23/04:00am 10.4 8.7 10.0 97 0.2 NW 9 11 5 6 1028.5 - 3.2
23/03:30am 10.7 10.1 10.5 99 0.1 SW 4 7 2 4 1028.6 - 3.2
23/03:11am 10.7 9.6 10.5 99 0.1 W 7 9 4 5 1028.7 - 3.2
23/03:00am 10.6 9.5 10.6 100 0.0 W 7 9 4 5 1028.8 1028.9 3.2
23/02:30am 11.2 10.4 11.0 99 0.1 WNW 6 7 3 4 1028.9 - 3.2
23/02:22am 11.1 10.0 10.7 97 0.2 W 7 9 4 5 1029.0 - 3.2
23/02:00am 11.0 9.5 10.6 97 0.2 WSW 9 9 5 5 1029.1 - 3.0
23/01:52am 11.1 10.3 10.9 99 0.1 WSW 6 9 3 5 1029.3 - 3.0
23/01:30am 11.6 10.9 11.4 99 0.1 W 6 9 3 5 1029.6 - 3.0
23/01:00am 11.5 10.2 11.1 97 0.2 WNW 9 9 5 5 1029.9 - 3.0
23/12:30am 11.2 11.2 11.0 99 0.1 N 2 9 1 5 1029.9 - 3.0
23/12:18am 11.4 11.8 11.2 99 0.1 CALM 0 0 0 0 1029.8 - 3.0
23/12:00am 11.4 11.7 10.8 96 0.3 N 0 0 0 0 1029.7 1029.8 3.0
 
Date/Time
EST
Temp
°C
App
Temp
°C
Dew
Point
Rel
Hum
%
Delta-T
°C
Wind Press
QNH
hPa
Press
MSL
hPa
Rain
since 9 am
mm
Dir
 
Spd
km/h
Gust
km/h
Spd
kts
Gust
kts
22/11:49pm 11.0 10.2 11.0 100 0.0 N 6 7 3 4 1029.6 - 3.0
22/11:30pm 12.0 11.4 11.6 97 0.2 NNE 6 9 3 5 1029.7 - 3.0
22/11:00pm 12.7 12.0 12.1 96 0.3 ENE 7 11 4 6 1030.1 - 2.8
22/10:30pm 12.3 10.7 11.5 95 0.4 E 11 13 6 7 1030.6 - 0.4
22/10:00pm 11.4 9.9 10.6 95 0.4 NNE 9 11 5 6 1030.2 - 0.0
22/09:30pm 10.5 9.3 9.7 95 0.4 S 6 7 3 4 1030.1 - 0.0
22/09:00pm 11.1 11.3 10.7 97 0.2 CALM 0 2 0 1 1030.2 1030.3 0.0
22/08:30pm 11.2 10.3 10.6 96 0.3 SSW 6 7 3 4 1030.2 - 0.0
22/08:00pm 11.9 12.3 11.1 95 0.4 CALM 0 0 0 0 1030.1 - 0.0
22/07:30pm 13.1 12.9 11.8 92 0.7 ENE 4 7 2 4 1029.6 - 0.0
22/07:00pm 14.0 12.0 11.5 85 1.3 NE 13 17 7 9 1029.4 - 0.0
22/06:30pm 14.9 13.2 12.3 84 1.4 ESE 13 15 7 8 1029.3 - 0.0
22/06:00pm 15.6 12.5 11.7 77 2.1 SE 19 24 10 13 1029.1 1029.2 0.0
22/05:30pm 15.3 12.8 10.9 75 2.3 SSE 15 19 8 10 1028.7 - 0.0
22/05:00pm 16.5 13.3 11.1 70 2.9 SSE 19 24 10 13 1028.5 - 0.0
22/04:30pm 17.2 13.7 11.0 67 3.3 SSE 20 28 11 15 1028.3 - 0.0
22/04:00pm 17.4 13.6 11.3 67 3.3 S 22 32 12 17 1028.0 - 0.0
22/03:30pm 17.5 13.4 11.6 68 3.2 SSE 24 32 13 17 1028.0 - 0.0
22/03:00pm 17.8 13.7 11.5 66 3.4 S 24 30 13 16 1028.2 1028.3 0.0
22/02:30pm 17.6 13.0 10.9 65 3.6 S 26 35 14 19 1028.2 - 0.0
22/02:00pm 18.0 13.7 10.9 63 3.8 S 24 30 13 16 1028.4 - 0.0
22/01:30pm 18.0 13.8 11.1 64 3.7 S 24 30 13 16 1028.6 - 0.0
22/01:00pm 17.9 14.5 11.2 65 3.6 S 20 28 11 15 1028.9 - 0.0
22/12:30pm 17.9 14.5 11.2 65 3.6 S 20 26 11 14 1029.4 - 0.0
22/12:00pm 18.0 14.8 11.1 64 3.7 S 19 26 10 14 1029.8 1029.9 0.0
22/11:30am 17.3 14.3 11.8 70 3.0 S 19 26 10 14 1030.2 - 0.0
22/11:00am 16.5 14.1 11.5 72 2.7 SW 15 20 8 11 1030.7 - 0.0
22/10:30am 16.6 14.4 12.2 75 2.4 SW 15 19 8 10 1031.0 - 0.0
22/10:00am 15.7 14.1 12.8 83 1.6 SSW 13 17 7 9 1031.2 - 0.0
22/09:30am 15.2 14.1 13.0 87 1.2 SSW 11 17 6 9 1031.1 - 0.0
22/09:08am 14.0 12.6 13.5 97 0.3 SW 13 15 7 8 1031.1 - 0.0
22/09:00am 14.1 12.8 13.7 97 0.2 WSW 13 17 7 9 1031.0 1031.1 8.6
22/08:57am 13.9 12.7 13.9 100 0.0 WSW 13 17 7 9 1031.0 - 8.6
22/08:37am 12.5 12.5 12.3 99 0.1 W 4 9 2 5 1031.1 - 8.6
22/08:30am 12.3 11.2 12.1 99 0.1 WSW 9 11 5 6 1031.1 - 8.6
22/08:11am 12.0 10.5 11.8 99 0.1 WSW 11 15 6 8 1030.8 - 8.6
22/08:00am 12.1 10.5 11.7 97 0.2 WSW 11 13 6 7 1030.7 - 8.6
22/07:47am 11.9 10.7 11.5 97 0.2 WSW 9 13 5 7 1030.6 - 8.6
22/07:29am 11.7 11.0 11.3 97 0.2 W 6 11 3 6 1030.4 - 8.6
22/07:00am 10.9 9.4 10.5 97 0.2 W 9 11 5 6 1030.2 - 8.6
22/06:42am 11.0 9.6 10.8 99 0.1 WNW 9 11 5 6 1029.9 - 8.6
22/06:30am 11.1 9.6 10.7 97 0.2 WNW 9 11 5 6 1029.7 - 8.6
22/06:24am 11.1 9.7 10.9 99 0.1 W 9 9 5 5 1029.6 - 8.6
22/06:00am 11.1 9.7 10.9 99 0.1 WNW 9 11 5 6 1029.3 1029.4 8.6
22/05:40am 11.5 9.4 11.3 99 0.1 WSW 13 15 7 8 1029.0 - 8.6
22/05:33am 11.4 9.7 11.2 99 0.1 WSW 11 15 6 8 1028.9 - 8.6
22/05:30am 11.4 9.7 11.2 99 0.1 W 11 13 6 7 1028.9 - 8.6
22/05:00am 11.6 10.7 11.4 99 0.1 WNW 7 7 4 4 1028.7 - 8.6
22/04:59am 11.6 10.7 11.4 99 0.1 WNW 7 9 4 5 1028.7 - 8.6
22/04:30am 11.7 10.1 11.5 99 0.1 NNW 11 13 6 7 1028.5 - 8.6
22/04:00am 11.7 11.4 11.3 97 0.2 NW 4 11 2 6 1028.5 - 8.4
22/03:30am 12.0 11.4 11.6 97 0.2 WSW 6 7 3 4 1028.4 - 8.4
22/03:00am 12.1 12.6 11.7 97 0.2 CALM 0 6 0 3 1028.6 1028.7 8.4
22/02:41am 11.9 11.6 11.5 97 0.2 SSW 4 11 2 6 1028.8 - 7.8
22/02:30am 11.8 11.0 11.6 99 0.1 SW 7 11 4 6 1028.6 - 7.8
22/02:24am 11.8 10.6 11.6 99 0.1 SW 9 11 5 6 1028.7 - 7.8
22/02:11am 12.0 10.4 11.6 97 0.2 SW 11 13 6 7 1028.7 - 7.8
22/02:00am 12.0 10.4 11.6 97 0.2 WNW 11 15 6 8 1028.8 - 7.8
22/01:39am 12.1 10.9 11.7 97 0.2 WNW 9 11 5 6 1028.9 - 7.8
22/01:30am 12.1 10.9 11.7 97 0.2 NNW 9 11 5 6 1029.0 - 7.8
22/01:00am 11.9 10.3 11.7 99 0.1 N 11 15 6 8 1029.0 - 7.8
22/12:35am 11.9 12.1 11.7 99 0.1 NNW 2 7 1 4 1029.4 - 6.0
22/12:30am 11.9 11.3 11.7 99 0.1 WNW 6 7 3 4 1029.3 - 6.0
22/12:00am 11.9 11.0 11.5 97 0.2 N 7 9 4 5 1029.3 1029.4 4.6
 
Date/Time
EST
Temp
°C
App
Temp
°C
Dew
Point
Rel
Hum
%
Delta-T
°C
Wind Press
QNH
hPa
Press
MSL
hPa
Rain
since 9 am
mm
Dir
 
Spd
km/h
Gust
km/h
Spd
kts
Gust
kts
21/11:56pm 11.9 11.2 11.5 97 0.2 N 6 9 3 5 1029.2 - 4.6
21/11:47pm 11.7 12.1 11.3 97 0.2 CALM 0 0 0 0 1029.2 - 4.6
21/11:30pm 12.0 10.8 11.6 97 0.2 NW 9 11 5 6 1029.1 - 4.6
21/11:12pm 12.7 12.1 12.3 97 0.2 W 7 9 4 5 1029.0 - 4.6
21/11:00pm 12.7 12.3 12.3 97 0.2 WSW 6 9 3 5 1029.0 - 4.6
21/10:41pm 12.6 12.5 12.0 96 0.3 W 4 9 2 5 1029.0 - 3.0
21/10:30pm 12.4 11.8 11.8 96 0.3 WSW 6 9 3 5 1029.0 - 2.0
21/10:00pm 12.0 10.7 11.4 96 0.3 WSW 9 15 5 8 1028.9 - 2.0
21/09:37pm 12.3 11.1 11.7 96 0.3 WNW 9 13 5 7 1028.9 - 2.0
21/09:30pm 12.5 11.4 11.9 96 0.3 W 9 15 5 8 1028.9 - 2.0
21/09:13pm 12.6 11.1 11.8 95 0.4 N 11 17 6 9 1028.9 - 0.6
21/09:00pm 12.4 11.2 11.6 95 0.4 WNW 9 13 5 7 1029.0 1029.1 0.6
21/08:30pm 12.3 10.2 11.3 94 0.5 SW 13 15 7 8 1028.6 - 0.6
21/08:00pm 12.7 10.6 11.2 91 0.8 SW 13 17 7 9 1028.6 - 0.6
21/07:30pm 13.2 11.6 11.5 89 0.9 SSW 11 15 6 8 1028.4 - 0.6
21/07:00pm 13.1 11.4 11.2 88 1.0 SW 11 13 6 7 1028.1 - 0.6
21/06:30pm 13.9 12.1 11.0 83 1.5 S 11 13 6 7 1028.0 - 0.6
21/06:00pm 13.6 12.9 11.5 87 1.1 SSW 6 11 3 6 1027.6 1027.7 0.6
21/05:30pm 13.7 14.1 11.2 85 1.3 CALM 0 6 0 3 1027.4 - 0.6
21/05:00pm 14.6 13.0 11.6 82 1.6 ENE 11 15 6 8 1027.1 - 0.6
21/04:30pm 15.5 13.9 11.4 76 2.2 ESE 11 17 6 9 1026.7 - 0.6
21/04:00pm 15.4 13.5 11.7 78 2.0 E 13 17 7 9 1026.5 - 0.6
21/03:30pm 16.4 13.4 10.5 68 3.1 SSE 17 22 9 12 1026.2 - 0.6
21/03:00pm 16.8 13.1 10.1 64 3.5 S 20 26 11 14 1026.0 1026.1 0.6
21/02:30pm 16.6 13.2 9.0 61 3.9 SSE 17 22 9 12 1026.0 - 0.6
21/02:00pm 15.6 11.7 10.9 73 2.5 S 22 28 12 15 1026.3 - 0.6
21/01:30pm 14.4 9.8 11.0 80 1.8 SSE 26 33 14 18 1026.7 - 0.6
21/01:00pm 15.5 13.7 12.0 79 1.9 SW 13 17 7 9 1026.8 - 0.6
21/12:30pm 14.8 12.2 12.0 83 1.5 SSW 17 22 9 12 1027.2 - 0.6
21/12:00pm 14.9 13.5 12.1 83 1.5 S 11 15 6 8 1027.6 1027.7 0.6
21/11:30am 14.2 12.9 12.5 89 0.9 WSW 11 15 6 8 1028.0 - 0.6
21/11:00am 13.9 12.1 12.2 89 0.9 WSW 13 17 7 9 1028.2 - 0.6
21/10:30am 13.5 12.0 12.0 91 0.8 WSW 11 15 6 8 1028.4 - 0.4
21/10:00am 14.0 11.7 11.7 86 1.2 WSW 15 19 8 10 1028.5 - 0.0
21/09:30am 13.5 11.2 11.6 88 1.0 W 15 20 8 11 1028.4 - 0.0
21/09:00am 12.8 10.6 10.9 88 1.0 W 13 17 7 9 1028.3 1028.4 0.8
21/08:30am 12.3 10.1 10.8 90 0.8 WNW 13 17 7 9 1028.3 - 0.8
21/08:00am 10.4 7.9 9.6 95 0.4 WNW 13 17 7 9 1028.1 - 0.8
21/07:30am 9.8 7.1 9.0 95 0.4 WNW 13 17 7 9 1027.9 - 0.2
21/07:00am 9.8 7.6 9.2 96 0.3 NW 11 13 6 7 1027.5 - 0.2
21/06:30am 9.6 7.3 9.0 96 0.3 N 11 15 6 8 1027.2 - 0.2
21/06:00am 9.5 6.8 8.9 96 0.3 WNW 13 15 7 8 1026.7 1026.8 0.2
21/05:30am 9.1 6.3 8.7 97 0.2 W 13 15 7 8 1026.4 - 0.2
21/05:00am 8.8 6.0 8.4 97 0.2 WNW 13 15 7 8 1026.2 - 0.2
21/04:30am 9.6 7.2 8.8 95 0.4 WNW 11 13 6 7 1026.1 - 0.0
21/04:00am 10.1 7.5 9.3 95 0.4 W 13 15 7 8 1026.0 - 0.0
21/03:30am 10.2 7.6 9.4 95 0.4 W 13 17 7 9 1026.0 - 0.0
21/03:00am 10.4 7.9 9.8 96 0.3 W 13 15 7 8 1026.0 1026.1 0.0
21/02:30am 10.1 8.0 9.7 97 0.2 WNW 11 13 6 7 1025.9 - 0.0
21/02:00am 10.7 8.2 9.7 93 0.5 NW 13 15 7 8 1026.0 - 0.0
21/01:30am 10.8 8.5 9.0 89 0.9 NW 11 13 6 7 1026.0 - 0.0
21/01:00am 13.9 10.5 7.6 66 3.1 S 15 17 8 9 1026.1 - 0.0
21/12:30am 14.4 10.6 7.7 64 3.3 S 17 20 9 11 1026.1 - 0.0
21/12:00am 13.7 9.8 8.5 71 2.6 SSE 19 26 10 14 1026.1 1026.2 0.0
 
Date/Time
EST
Temp
°C
App
Temp
°C
Dew
Point
Rel
Hum
%
Delta-T
°C
Wind Press
QNH
hPa
Press
MSL
hPa
Rain
since 9 am
mm
Dir
 
Spd
km/h
Gust
km/h
Spd
kts
Gust
kts
20/11:30pm 11.1 8.8 9.1 87 1.0 W 11 17 6 9 1026.1 - 0.0

Other Formats:

Comma delimited format used in spreadsheet applications
http://www.bom.gov.au/fwo/IDN60801/IDN60801.94776.axf

JavaScript Object Notation format (JSON) in row-major order
http://www.bom.gov.au/fwo/IDN60801/IDN60801.94776.json